Malone, FL (32445)

8:22 PM CDT on August 28, 2015 (GMT -0500)
Malone School WeatherSTEM | | Change Station
CLOSE
Current Station
Personal Weather Station
Location: Malone, FL
Elevation: 157 ft
Nearby Weather Stations

Elev 157 ft 30.95 °N, 85.17 °W | Updated 12 minutes ago

Clear
Clear
81.4 °F
Feels Like 86 °F
N
1.0
Wind Variable Wind from NE
Gusts 14.0 mph

Today
High -- | Low -- °F
--% Chance of Precip.
Yesterday
High -- | Low -- °F
Precip. -- in
6:14 AM 7:09 PM
Waxing Gibbous, 99% visible
Pressure 30.02 in
Visibility 10.0 miles
Clouds Mostly Cloudy 4000 ft
Mostly Cloudy 5000 ft
Heat Index 86 °F
Dew Point 72 °F
Humidity 72%
Rainfall 0.03 in
Snow Depth Not available.
UV 0.0 out of 12
Pollen 6.00 out of 12
Air Quality Not available.
Flu Activity Not available.
METAR KMAI 290053Z AUTO 10003KT 10SM BKN040 BKN050 28/24 A3003 RMK AO2 LTG DSNT NE SLP165 T02830239
Pressure 30.02 in
Visibility 10.0 miles
Clouds Mostly Cloudy 4000 ft
Mostly Cloudy 5000 ft
Heat Index 86 °F
Dew Point 72 °F
Humidity 72%
Rainfall 0.03 in
Snow Depth Not available.
UV 0.0 out of 12
Pollen 6.00 out of 12
Air Quality Not available.
Flu Activity Not available.
METAR KMAI 290053Z AUTO 10003KT 10SM BKN040 BKN050 28/24 A3003 RMK AO2 LTG DSNT NE SLP165 T02830239

10-Day Weather Forecast

×

Almanac

Astronomy

Aug. 28, 2015 Rise Set
Actual Time
Civil Twilight
Nautical Twilight
Astronomical Twilight
Moon
Length of Visible Light
Length of Day
Tomorrow will be .
, % of the Moon is Illuminated

Today's Extremes

State Highs State Lows

Community

WunderPhotos

Upload Photos

1,850,566 photos uploaded!

WunderBlogs® & News

Nearby

Air Quality

  Air Quality AQ Index Pollutant
Not available.

Snow Depth

Station Depth Elevation

Earthquake Activity

City Distance Mag. Time & Date
Minimum magnitude displayed is 2.5.

Coastal Water Temperatures

Place Temperature

Stations

Nearby Weather Stations

Station Location Temp. Windchill Dew Point Humidity Wind Precip. Elev Updated Type